sensor_id;sensor_type;location;lat;lon;timestamp;P1;durP1;ratioP1;P2;durP2;ratioP2
41817;SDS011;27493;51.730;5.294;2023-03-01T00:01:18;11.57;;;8.03;;
41817;SDS011;27493;51.730;5.294;2023-03-01T00:03:44;12.20;;;7.67;;
41817;SDS011;27493;51.730;5.294;2023-03-01T00:06:09;11.90;;;8.03;;
41817;SDS011;27493;51.730;5.294;2023-03-01T00:08:34;12.70;;;7.87;;
41817;SDS011;27493;51.730;5.294;2023-03-01T00:11:21;13.73;;;8.20;;
41817;SDS011;27493;51.730;5.294;2023-03-01T00:13:45;10.40;;;7.33;;
41817;SDS011;27493;51.730;5.294;2023-03-01T00:16:12;12.30;;;7.53;;
41817;SDS011;27493;51.730;5.294;2023-03-01T00:18:38;9.87;;;7.70;;
41817;SDS011;27493;51.730;5.294;2023-03-01T00:21:04;10.33;;;7.50;;
41817;SDS011;27493;51.730;5.294;2023-03-01T00:23:29;11.60;;;7.90;;
41817;SDS011;27493;51.730;5.294;2023-03-01T00:25:54;10.53;;;7.67;;
41817;SDS011;27493;51.730;5.294;2023-03-01T00:28:20;13.23;;;8.03;;
41817;SDS011;27493;51.730;5.294;2023-03-01T00:30:45;10.07;;;7.53;;
41817;SDS011;27493;51.730;5.294;2023-03-01T00:33:10;9.87;;;7.30;;
41817;SDS011;27493;51.730;5.294;2023-03-01T00:35:36;11.63;;;7.97;;
41817;SDS011;27493;51.730;5.294;2023-03-01T00:38:01;10.67;;;7.77;;
41817;SDS011;27493;51.730;5.294;2023-03-01T00:40:27;13.30;;;8.07;;
41817;SDS011;27493;51.730;5.294;2023-03-01T00:42:52;10.07;;;7.47;;
41817;SDS011;27493;51.730;5.294;2023-03-01T00:45:18;12.00;;;7.53;;
41817;SDS011;27493;51.730;5.294;2023-03-01T00:47:43;10.20;;;7.30;;
41817;SDS011;27493;51.730;5.294;2023-03-01T00:50:08;14.27;;;7.63;;
41817;SDS011;27493;51.730;5.294;2023-03-01T00:52:34;12.07;;;7.27;;
41817;SDS011;27493;51.730;5.294;2023-03-01T00:54:59;12.07;;;7.50;;
41817;SDS011;27493;51.730;5.294;2023-03-01T00:57:24;11.43;;;7.57;;
41817;SDS011;27493;51.730;5.294;2023-03-01T00:59:49;12.43;;;8.20;;
41817;SDS011;27493;51.730;5.294;2023-03-01T01:02:17;10.37;;;7.33;;
41817;SDS011;27493;51.730;5.294;2023-03-01T01:04:42;10.20;;;7.00;;
41817;SDS011;27493;51.730;5.294;2023-03-01T01:07:07;12.17;;;7.80;;
41817;SDS011;27493;51.730;5.294;2023-03-01T01:09:33;12.43;;;7.70;;
41817;SDS011;27493;51.730;5.294;2023-03-01T01:11:58;11.63;;;7.97;;
41817;SDS011;27493;51.730;5.294;2023-03-01T01:14:23;8.67;;;6.80;;
41817;SDS011;27493;51.730;5.294;2023-03-01T01:16:48;15.30;;;8.00;;
41817;SDS011;27493;51.730;5.294;2023-03-01T01:19:14;11.00;;;7.70;;
41817;SDS011;27493;51.730;5.294;2023-03-01T01:21:39;11.70;;;7.27;;
41817;SDS011;27493;51.730;5.294;2023-03-01T01:24:04;11.30;;;7.80;;
41817;SDS011;27493;51.730;5.294;2023-03-01T01:26:30;13.07;;;7.63;;
41817;SDS011;27493;51.730;5.294;2023-03-01T01:28:56;11.77;;;8.03;;
41817;SDS011;27493;51.730;5.294;2023-03-01T01:31:22;10.60;;;6.90;;
41817;SDS011;27493;51.730;5.294;2023-03-01T01:33:48;10.13;;;7.70;;
41817;SDS011;27493;51.730;5.294;2023-03-01T01:36:13;10.43;;;7.77;;
41817;SDS011;27493;51.730;5.294;2023-03-01T01:38:39;10.37;;;7.30;;
41817;SDS011;27493;51.730;5.294;2023-03-01T01:41:04;13.30;;;8.43;;
41817;SDS011;27493;51.730;5.294;2023-03-01T01:43:32;12.93;;;7.87;;
41817;SDS011;27493;51.730;5.294;2023-03-01T01:46:19;11.07;;;7.43;;
41817;SDS011;27493;51.730;5.294;2023-03-01T01:48:47;11.03;;;7.67;;
41817;SDS011;27493;51.730;5.294;2023-03-01T01:51:14;11.70;;;7.63;;
41817;SDS011;27493;51.730;5.294;2023-03-01T01:53:42;10.77;;;7.53;;
41817;SDS011;27493;51.730;5.294;2023-03-01T01:56:10;10.07;;;7.40;;
41817;SDS011;27493;51.730;5.294;2023-03-01T01:58:36;10.27;;;7.93;;
41817;SDS011;27493;51.730;5.294;2023-03-01T02:01:01;12.07;;;7.97;;
41817;SDS011;27493;51.730;5.294;2023-03-01T02:03:29;11.47;;;7.73;;
41817;SDS011;27493;51.730;5.294;2023-03-01T02:08:28;9.97;;;7.27;;
41817;SDS011;27493;51.730;5.294;2023-03-01T02:10:55;9.20;;;6.90;;
41817;SDS011;27493;51.730;5.294;2023-03-01T02:13:21;11.63;;;7.63;;
41817;SDS011;27493;51.730;5.294;2023-03-01T02:15:46;13.40;;;7.47;;
41817;SDS011;27493;51.730;5.294;2023-03-01T02:18:12;10.07;;;7.67;;
41817;SDS011;27493;51.730;5.294;2023-03-01T02:20:40;11.53;;;8.10;;
41817;SDS011;27493;51.730;5.294;2023-03-01T02:23:08;12.87;;;8.33;;
41817;SDS011;27493;51.730;5.294;2023-03-01T02:25:35;14.30;;;8.20;;
41817;SDS011;27493;51.730;5.294;2023-03-01T02:30:31;13.27;;;7.77;;
41817;SDS011;27493;51.730;5.294;2023-03-01T02:32:57;12.13;;;7.67;;
41817;SDS011;27493;51.730;5.294;2023-03-01T02:35:27;13.70;;;8.80;;
41817;SDS011;27493;51.730;5.294;2023-03-01T02:37:52;11.63;;;8.37;;
41817;SDS011;27493;51.730;5.294;2023-03-01T02:40:22;11.47;;;7.87;;
41817;SDS011;27493;51.730;5.294;2023-03-01T02:42:49;10.90;;;8.00;;
41817;SDS011;27493;51.730;5.294;2023-03-01T02:45:16;11.23;;;7.60;;
41817;SDS011;27493;51.730;5.294;2023-03-01T02:47:41;12.07;;;7.33;;
41817;SDS011;27493;51.730;5.294;2023-03-01T02:53:14;13.00;;;8.00;;
41817;SDS011;27493;51.730;5.294;2023-03-01T02:55:41;11.07;;;7.47;;
41817;SDS011;27493;51.730;5.294;2023-03-01T02:58:06;10.77;;;7.97;;
41817;SDS011;27493;51.730;5.294;2023-03-01T03:00:39;12.30;;;7.50;;
41817;SDS011;27493;51.730;5.294;2023-03-01T03:03:08;12.70;;;7.83;;
41817;SDS011;27493;51.730;5.294;2023-03-01T03:05:34;11.43;;;7.60;;
41817;SDS011;27493;51.730;5.294;2023-03-01T03:08:00;10.00;;;7.60;;
41817;SDS011;27493;51.730;5.294;2023-03-01T03:10:27;11.47;;;7.53;;
41817;SDS011;27493;51.730;5.294;2023-03-01T03:13:03;8.83;;;6.80;;
41817;SDS011;27493;51.730;5.294;2023-03-01T03:15:29;14.10;;;8.20;;
41817;SDS011;27493;51.730;5.294;2023-03-01T03:17:55;12.10;;;7.50;;
41817;SDS011;27493;51.730;5.294;2023-03-01T03:20:22;10.77;;;7.60;;
41817;SDS011;27493;51.730;5.294;2023-03-01T03:22:49;11.87;;;7.10;;
41817;SDS011;27493;51.730;5.294;2023-03-01T03:25:15;11.03;;;7.90;;
41817;SDS011;27493;51.730;5.294;2023-03-01T03:27:41;11.77;;;7.70;;
41817;SDS011;27493;51.730;5.294;2023-03-01T03:30:08;10.50;;;7.20;;
41817;SDS011;27493;51.730;5.294;2023-03-01T03:32:34;13.50;;;7.80;;
41817;SDS011;27493;51.730;5.294;2023-03-01T03:35:00;11.33;;;7.90;;
41817;SDS011;27493;51.730;5.294;2023-03-01T03:37:25;13.37;;;7.27;;
41817;SDS011;27493;51.730;5.294;2023-03-01T03:40:09;11.60;;;7.47;;
41817;SDS011;27493;51.730;5.294;2023-03-01T03:42:40;12.27;;;8.40;;
41817;SDS011;27493;51.730;5.294;2023-03-01T03:45:05;10.53;;;7.80;;
41817;SDS011;27493;51.730;5.294;2023-03-01T03:47:30;10.13;;;7.67;;
41817;SDS011;27493;51.730;5.294;2023-03-01T03:49:55;11.17;;;7.57;;
41817;SDS011;27493;51.730;5.294;2023-03-01T03:52:21;11.67;;;7.33;;
41817;SDS011;27493;51.730;5.294;2023-03-01T03:54:46;11.17;;;7.00;;
41817;SDS011;27493;51.730;5.294;2023-03-01T03:57:11;10.73;;;7.00;;
41817;SDS011;27493;51.730;5.294;2023-03-01T03:59:36;9.60;;;7.00;;
41817;SDS011;27493;51.730;5.294;2023-03-01T04:02:01;14.97;;;7.37;;
41817;SDS011;27493;51.730;5.294;2023-03-01T04:04:27;12.00;;;7.73;;
41817;SDS011;27493;51.730;5.294;2023-03-01T04:06:52;12.40;;;6.93;;
41817;SDS011;27493;51.730;5.294;2023-03-01T04:09:17;10.60;;;7.33;;
41817;SDS011;27493;51.730;5.294;2023-03-01T04:11:42;11.73;;;7.50;;
41817;SDS011;27493;51.730;5.294;2023-03-01T04:14:07;12.00;;;7.47;;
41817;SDS011;27493;51.730;5.294;2023-03-01T04:16:33;10.13;;;6.90;;
41817;SDS011;27493;51.730;5.294;2023-03-01T04:18:58;9.17;;;7.00;;
41817;SDS011;27493;51.730;5.294;2023-03-01T04:21:24;11.47;;;6.77;;
41817;SDS011;27493;51.730;5.294;2023-03-01T04:23:49;10.17;;;6.60;;
41817;SDS011;27493;51.730;5.294;2023-03-01T04:26:17;12.57;;;7.10;;
41817;SDS011;27493;51.730;5.294;2023-03-01T04:28:42;9.47;;;7.13;;
41817;SDS011;27493;51.730;5.294;2023-03-01T04:31:11;10.57;;;6.77;;
41817;SDS011;27493;51.730;5.294;2023-03-01T04:33:42;10.20;;;6.77;;
41817;SDS011;27493;51.730;5.294;2023-03-01T04:36:07;9.20;;;6.47;;
41817;SDS011;27493;51.730;5.294;2023-03-01T04:38:34;10.03;;;6.83;;
41817;SDS011;27493;51.730;5.294;2023-03-01T04:40:59;10.57;;;6.80;;
41817;SDS011;27493;51.730;5.294;2023-03-01T04:43:24;9.77;;;6.30;;
41817;SDS011;27493;51.730;5.294;2023-03-01T04:45:49;9.60;;;6.40;;
41817;SDS011;27493;51.730;5.294;2023-03-01T04:48:15;10.53;;;6.70;;
41817;SDS011;27493;51.730;5.294;2023-03-01T04:50:40;12.43;;;6.93;;
41817;SDS011;27493;51.730;5.294;2023-03-01T04:53:06;9.30;;;6.67;;
41817;SDS011;27493;51.730;5.294;2023-03-01T04:55:31;12.00;;;6.40;;
41817;SDS011;27493;51.730;5.294;2023-03-01T04:57:56;10.23;;;6.57;;
41817;SDS011;27493;51.730;5.294;2023-03-01T05:00:21;10.17;;;6.40;;
41817;SDS011;27493;51.730;5.294;2023-03-01T05:02:57;9.17;;;6.23;;
41817;SDS011;27493;51.730;5.294;2023-03-01T05:05:33;9.40;;;6.53;;
41817;SDS011;27493;51.730;5.294;2023-03-01T05:08:00;11.37;;;6.87;;
41817;SDS011;27493;51.730;5.294;2023-03-01T05:10:26;9.60;;;6.80;;
41817;SDS011;27493;51.730;5.294;2023-03-01T05:12:53;9.93;;;6.93;;
41817;SDS011;27493;51.730;5.294;2023-03-01T05:15:19;10.70;;;7.13;;
41817;SDS011;27493;51.730;5.294;2023-03-01T05:17:46;9.30;;;6.77;;
41817;SDS011;27493;51.730;5.294;2023-03-01T05:20:11;8.77;;;6.50;;
41817;SDS011;27493;51.730;5.294;2023-03-01T05:22:37;12.37;;;6.53;;
41817;SDS011;27493;51.730;5.294;2023-03-01T05:25:03;9.90;;;6.80;;
41817;SDS011;27493;51.730;5.294;2023-03-01T05:27:28;9.97;;;6.83;;
41817;SDS011;27493;51.730;5.294;2023-03-01T05:29:54;9.40;;;6.40;;
41817;SDS011;27493;51.730;5.294;2023-03-01T05:32:19;9.83;;;6.70;;
41817;SDS011;27493;51.730;5.294;2023-03-01T05:34:44;9.67;;;6.83;;
41817;SDS011;27493;51.730;5.294;2023-03-01T05:37:11;10.80;;;7.30;;
41817;SDS011;27493;51.730;5.294;2023-03-01T05:39:36;10.13;;;7.27;;
41817;SDS011;27493;51.730;5.294;2023-03-01T05:42:01;11.10;;;7.60;;
41817;SDS011;27493;51.730;5.294;2023-03-01T05:44:27;9.77;;;6.80;;
41817;SDS011;27493;51.730;5.294;2023-03-01T05:46:53;9.77;;;7.00;;
41817;SDS011;27493;51.730;5.294;2023-03-01T05:49:18;11.33;;;6.73;;
41817;SDS011;27493;51.730;5.294;2023-03-01T05:51:47;8.50;;;6.43;;
41817;SDS011;27493;51.730;5.294;2023-03-01T05:54:13;11.23;;;7.13;;
41817;SDS011;27493;51.730;5.294;2023-03-01T05:56:38;10.80;;;6.23;;
41817;SDS011;27493;51.730;5.294;2023-03-01T05:59:04;10.07;;;7.27;;
41817;SDS011;27493;51.730;5.294;2023-03-01T06:01:30;11.00;;;7.40;;
41817;SDS011;27493;51.730;5.294;2023-03-01T06:03:55;10.50;;;6.57;;
41817;SDS011;27493;51.730;5.294;2023-03-01T06:06:21;9.30;;;6.77;;
41817;SDS011;27493;51.730;5.294;2023-03-01T06:08:47;11.53;;;6.90;;
41817;SDS011;27493;51.730;5.294;2023-03-01T06:11:12;9.37;;;6.80;;
41817;SDS011;27493;51.730;5.294;2023-03-01T06:13:37;11.93;;;6.90;;
41817;SDS011;27493;51.730;5.294;2023-03-01T06:16:05;10.90;;;6.67;;
41817;SDS011;27493;51.730;5.294;2023-03-01T06:18:31;10.67;;;7.03;;
41817;SDS011;27493;51.730;5.294;2023-03-01T06:20:56;9.37;;;6.73;;
41817;SDS011;27493;51.730;5.294;2023-03-01T06:23:22;10.77;;;6.63;;
41817;SDS011;27493;51.730;5.294;2023-03-01T06:25:47;11.03;;;6.87;;
41817;SDS011;27493;51.730;5.294;2023-03-01T06:28:12;13.30;;;7.30;;
41817;SDS011;27493;51.730;5.294;2023-03-01T06:30:38;9.70;;;6.70;;
41817;SDS011;27493;51.730;5.294;2023-03-01T06:33:03;9.23;;;6.47;;
41817;SDS011;27493;51.730;5.294;2023-03-01T06:35:29;10.87;;;7.03;;
41817;SDS011;27493;51.730;5.294;2023-03-01T06:37:55;10.33;;;6.93;;
41817;SDS011;27493;51.730;5.294;2023-03-01T06:40:21;10.47;;;6.63;;
41817;SDS011;27493;51.730;5.294;2023-03-01T06:42:50;11.57;;;7.10;;
41817;SDS011;27493;51.730;5.294;2023-03-01T06:45:15;10.70;;;6.60;;
41817;SDS011;27493;51.730;5.294;2023-03-01T06:47:41;9.90;;;6.50;;
41817;SDS011;27493;51.730;5.294;2023-03-01T06:50:06;8.93;;;6.63;;
41817;SDS011;27493;51.730;5.294;2023-03-01T06:52:31;11.77;;;7.10;;
41817;SDS011;27493;51.730;5.294;2023-03-01T06:54:57;12.93;;;6.87;;
41817;SDS011;27493;51.730;5.294;2023-03-01T06:57:22;11.03;;;6.70;;
41817;SDS011;27493;51.730;5.294;2023-03-01T06:59:47;8.80;;;6.63;;
41817;SDS011;27493;51.730;5.294;2023-03-01T07:02:13;11.13;;;7.10;;
41817;SDS011;27493;51.730;5.294;2023-03-01T07:04:39;10.27;;;6.50;;
41817;SDS011;27493;51.730;5.294;2023-03-01T07:07:04;9.67;;;6.87;;
41817;SDS011;27493;51.730;5.294;2023-03-01T07:09:29;10.77;;;6.70;;
41817;SDS011;27493;51.730;5.294;2023-03-01T07:11:55;11.10;;;6.97;;
41817;SDS011;27493;51.730;5.294;2023-03-01T07:14:20;10.20;;;6.67;;
41817;SDS011;27493;51.730;5.294;2023-03-01T07:16:46;8.40;;;6.30;;
41817;SDS011;27493;51.730;5.294;2023-03-01T07:19:11;10.67;;;6.33;;
41817;SDS011;27493;51.730;5.294;2023-03-01T07:21:36;13.67;;;6.97;;
41817;SDS011;27493;51.730;5.294;2023-03-01T07:24:04;10.60;;;7.10;;
41817;SDS011;27493;51.730;5.294;2023-03-01T07:26:29;9.87;;;7.10;;
41817;SDS011;27493;51.730;5.294;2023-03-01T07:28:54;9.00;;;7.10;;
41817;SDS011;27493;51.730;5.294;2023-03-01T07:31:19;9.37;;;6.97;;
41817;SDS011;27493;51.730;5.294;2023-03-01T07:33:45;9.07;;;6.40;;
41817;SDS011;27493;51.730;5.294;2023-03-01T07:36:10;11.67;;;7.37;;
41817;SDS011;27493;51.730;5.294;2023-03-01T07:38:35;10.57;;;7.50;;
41817;SDS011;27493;51.730;5.294;2023-03-01T07:41:01;11.33;;;6.90;;
41817;SDS011;27493;51.730;5.294;2023-03-01T07:43:27;13.80;;;7.43;;
41817;SDS011;27493;51.730;5.294;2023-03-01T07:45:52;13.50;;;7.53;;
41817;SDS011;27493;51.730;5.294;2023-03-01T07:48:17;10.90;;;7.77;;
41817;SDS011;27493;51.730;5.294;2023-03-01T07:50:43;10.23;;;7.30;;
41817;SDS011;27493;51.730;5.294;2023-03-01T07:53:08;11.13;;;7.23;;
41817;SDS011;27493;51.730;5.294;2023-03-01T07:55:34;9.63;;;7.20;;
41817;SDS011;27493;51.730;5.294;2023-03-01T07:57:59;14.73;;;7.80;;
41817;SDS011;27493;51.730;5.294;2023-03-01T08:00:24;14.70;;;7.67;;
41817;SDS011;27493;51.730;5.294;2023-03-01T08:02:49;9.57;;;6.80;;
41817;SDS011;27493;51.730;5.294;2023-03-01T08:05:14;13.17;;;7.73;;
41817;SDS011;27493;51.730;5.294;2023-03-01T08:07:40;11.27;;;7.57;;
41817;SDS011;27493;51.730;5.294;2023-03-01T08:10:05;11.30;;;6.63;;
41817;SDS011;27493;51.730;5.294;2023-03-01T08:12:30;10.40;;;6.50;;
41817;SDS011;27493;51.730;5.294;2023-03-01T08:14:56;10.13;;;7.10;;
41817;SDS011;27493;51.730;5.294;2023-03-01T08:17:22;13.60;;;7.60;;
41817;SDS011;27493;51.730;5.294;2023-03-01T08:19:47;10.30;;;6.93;;
41817;SDS011;27493;51.730;5.294;2023-03-01T08:22:12;9.83;;;6.97;;
41817;SDS011;27493;51.730;5.294;2023-03-01T08:24:37;10.83;;;6.97;;
41817;SDS011;27493;51.730;5.294;2023-03-01T08:27:02;11.70;;;7.83;;
41817;SDS011;27493;51.730;5.294;2023-03-01T08:29:28;11.07;;;7.07;;
41817;SDS011;27493;51.730;5.294;2023-03-01T08:31:55;11.73;;;7.27;;
41817;SDS011;27493;51.730;5.294;2023-03-01T08:34:20;11.27;;;7.00;;
41817;SDS011;27493;51.730;5.294;2023-03-01T08:36:45;13.43;;;7.30;;
41817;SDS011;27493;51.730;5.294;2023-03-01T08:39:12;10.00;;;6.87;;
41817;SDS011;27493;51.730;5.294;2023-03-01T08:41:38;12.43;;;7.07;;
41817;SDS011;27493;51.730;5.294;2023-03-01T08:44:03;10.93;;;7.17;;
41817;SDS011;27493;51.730;5.294;2023-03-01T08:46:29;11.97;;;7.03;;
41817;SDS011;27493;51.730;5.294;2023-03-01T08:48:55;12.03;;;6.73;;
41817;SDS011;27493;51.730;5.294;2023-03-01T08:51:20;9.13;;;6.80;;
41817;SDS011;27493;51.730;5.294;2023-03-01T08:53:46;13.33;;;7.53;;
41817;SDS011;27493;51.730;5.294;2023-03-01T08:56:11;10.57;;;7.00;;
41817;SDS011;27493;51.730;5.294;2023-03-01T08:58:36;11.83;;;7.83;;
41817;SDS011;27493;51.730;5.294;2023-03-01T09:01:06;13.37;;;7.03;;
41817;SDS011;27493;51.730;5.294;2023-03-01T09:03:31;12.27;;;6.93;;
41817;SDS011;27493;51.730;5.294;2023-03-01T09:05:59;9.47;;;7.03;;
41817;SDS011;27493;51.730;5.294;2023-03-01T09:08:25;10.73;;;7.40;;
41817;SDS011;27493;51.730;5.294;2023-03-01T09:10:50;10.00;;;6.77;;
41817;SDS011;27493;51.730;5.294;2023-03-01T09:13:15;10.47;;;7.03;;
41817;SDS011;27493;51.730;5.294;2023-03-01T09:15:40;10.57;;;6.97;;
41817;SDS011;27493;51.730;5.294;2023-03-01T09:18:05;11.43;;;7.73;;
41817;SDS011;27493;51.730;5.294;2023-03-01T09:20:31;8.77;;;7.10;;
41817;SDS011;27493;51.730;5.294;2023-03-01T09:22:56;9.93;;;6.50;;
41817;SDS011;27493;51.730;5.294;2023-03-01T09:25:21;12.90;;;6.90;;
41817;SDS011;27493;51.730;5.294;2023-03-01T09:27:47;10.97;;;7.20;;
41817;SDS011;27493;51.730;5.294;2023-03-01T09:30:13;11.27;;;7.23;;
41817;SDS011;27493;51.730;5.294;2023-03-01T09:32:38;9.73;;;6.33;;
41817;SDS011;27493;51.730;5.294;2023-03-01T09:35:07;9.67;;;6.17;;
41817;SDS011;27493;51.730;5.294;2023-03-01T09:37:33;10.27;;;6.37;;
41817;SDS011;27493;51.730;5.294;2023-03-01T09:39:58;12.10;;;6.43;;
41817;SDS011;27493;51.730;5.294;2023-03-01T09:42:24;9.67;;;6.60;;
41817;SDS011;27493;51.730;5.294;2023-03-01T09:44:51;9.33;;;6.50;;
41817;SDS011;27493;51.730;5.294;2023-03-01T09:47:21;12.13;;;6.60;;
41817;SDS011;27493;51.730;5.294;2023-03-01T09:49:52;9.23;;;6.40;;
41817;SDS011;27493;51.730;5.294;2023-03-01T09:52:39;8.90;;;6.17;;
41817;SDS011;27493;51.730;5.294;2023-03-01T09:55:15;10.23;;;6.43;;
41817;SDS011;27493;51.730;5.294;2023-03-01T09:58:00;8.50;;;6.90;;
41817;SDS011;27493;51.730;5.294;2023-03-01T10:00:33;9.27;;;6.43;;
41817;SDS011;27493;51.730;5.294;2023-03-01T10:08:25;7.83;;;6.27;;
41817;SDS011;27493;51.730;5.294;2023-03-01T10:10:51;9.17;;;6.30;;
41817;SDS011;27493;51.730;5.294;2023-03-01T10:13:19;10.50;;;6.27;;
41817;SDS011;27493;51.730;5.294;2023-03-01T10:18:47;9.07;;;6.30;;
41817;SDS011;27493;51.730;5.294;2023-03-01T10:21:19;7.57;;;5.80;;
41817;SDS011;27493;51.730;5.294;2023-03-01T10:23:45;8.77;;;6.40;;
41817;SDS011;27493;51.730;5.294;2023-03-01T10:31:11;7.97;;;6.03;;
41817;SDS011;27493;51.730;5.294;2023-03-01T10:33:37;8.47;;;6.10;;
41817;SDS011;27493;51.730;5.294;2023-03-01T10:36:04;7.80;;;5.83;;
41817;SDS011;27493;51.730;5.294;2023-03-01T10:38:30;9.53;;;6.13;;
41817;SDS011;27493;51.730;5.294;2023-03-01T10:40:57;8.17;;;5.70;;
41817;SDS011;27493;51.730;5.294;2023-03-01T10:43:23;11.67;;;6.23;;
41817;SDS011;27493;51.730;5.294;2023-03-01T10:45:48;8.73;;;6.00;;
41817;SDS011;27493;51.730;5.294;2023-03-01T10:50:43;9.77;;;5.90;;
41817;SDS011;27493;51.730;5.294;2023-03-01T10:53:22;6.93;;;5.80;;
41817;SDS011;27493;51.730;5.294;2023-03-01T10:55:56;9.50;;;6.03;;
41817;SDS011;27493;51.730;5.294;2023-03-01T10:58:22;9.57;;;6.03;;
41817;SDS011;27493;51.730;5.294;2023-03-01T11:03:13;8.67;;;5.80;;
41817;SDS011;27493;51.730;5.294;2023-03-01T11:08:30;8.70;;;6.10;;
41817;SDS011;27493;51.730;5.294;2023-03-01T11:13:53;8.00;;;6.07;;
41817;SDS011;27493;51.730;5.294;2023-03-01T11:18:57;8.10;;;6.30;;
41817;SDS011;27493;51.730;5.294;2023-03-01T11:21:23;7.07;;;5.70;;
41817;SDS011;27493;51.730;5.294;2023-03-01T11:23:49;8.83;;;6.00;;
41817;SDS011;27493;51.730;5.294;2023-03-01T11:26:15;10.63;;;6.90;;
41817;SDS011;27493;51.730;5.294;2023-03-01T11:28:40;10.53;;;7.10;;
41817;SDS011;27493;51.730;5.294;2023-03-01T11:31:08;9.17;;;6.40;;
41817;SDS011;27493;51.730;5.294;2023-03-01T11:33:39;10.60;;;6.37;;
41817;SDS011;27493;51.730;5.294;2023-03-01T11:38:37;12.13;;;6.00;;
41817;SDS011;27493;51.730;5.294;2023-03-01T11:41:20;9.17;;;6.80;;
41817;SDS011;27493;51.730;5.294;2023-03-01T11:56:50;9.27;;;6.33;;
41817;SDS011;27493;51.730;5.294;2023-03-01T12:06:59;8.80;;;6.07;;
41817;SDS011;27493;51.730;5.294;2023-03-01T12:09:37;7.93;;;5.93;;
41817;SDS011;27493;51.730;5.294;2023-03-01T12:14:50;8.23;;;5.80;;
41817;SDS011;27493;51.730;5.294;2023-03-01T12:22:17;9.13;;;5.80;;
41817;SDS011;27493;51.730;5.294;2023-03-01T12:27:24;7.23;;;6.03;;
41817;SDS011;27493;51.730;5.294;2023-03-01T12:32:33;8.37;;;6.10;;
41817;SDS011;27493;51.730;5.294;2023-03-01T12:37:42;8.67;;;5.70;;
41817;SDS011;27493;51.730;5.294;2023-03-01T12:45:26;7.33;;;5.90;;
41817;SDS011;27493;51.730;5.294;2023-03-01T12:50:26;9.20;;;6.70;;
41817;SDS011;27493;51.730;5.294;2023-03-01T12:52:55;10.13;;;6.43;;
41817;SDS011;27493;51.730;5.294;2023-03-01T12:55:31;10.13;;;6.07;;
41817;SDS011;27493;51.730;5.294;2023-03-01T12:58:03;8.03;;;6.10;;
41817;SDS011;27493;51.730;5.294;2023-03-01T13:00:38;9.33;;;5.93;;
41817;SDS011;27493;51.730;5.294;2023-03-01T13:03:10;7.67;;;5.40;;
41817;SDS011;27493;51.730;5.294;2023-03-01T13:08:29;8.57;;;6.43;;
41817;SDS011;27493;51.730;5.294;2023-03-01T13:11:11;9.07;;;5.60;;
41817;SDS011;27493;51.730;5.294;2023-03-01T13:13:39;9.53;;;5.73;;
41817;SDS011;27493;51.730;5.294;2023-03-01T13:18:49;9.70;;;5.93;;
41817;SDS011;27493;51.730;5.294;2023-03-01T13:21:14;9.47;;;6.00;;
41817;SDS011;27493;51.730;5.294;2023-03-01T13:23:53;8.40;;;5.57;;
41817;SDS011;27493;51.730;5.294;2023-03-01T13:26:19;7.43;;;5.20;;
41817;SDS011;27493;51.730;5.294;2023-03-01T13:31:10;7.27;;;5.83;;
41817;SDS011;27493;51.730;5.294;2023-03-01T13:36:04;9.43;;;5.20;;
41817;SDS011;27493;51.730;5.294;2023-03-01T13:41:24;6.73;;;4.93;;
41817;SDS011;27493;51.730;5.294;2023-03-01T13:44:05;7.50;;;5.10;;
41817;SDS011;27493;51.730;5.294;2023-03-01T13:46:36;7.60;;;5.40;;
41817;SDS011;27493;51.730;5.294;2023-03-01T13:49:01;10.00;;;5.67;;
41817;SDS011;27493;51.730;5.294;2023-03-01T13:51:27;8.27;;;5.50;;
41817;SDS011;27493;51.730;5.294;2023-03-01T13:53:53;6.33;;;5.00;;
41817;SDS011;27493;51.730;5.294;2023-03-01T13:56:25;7.33;;;5.10;;
41817;SDS011;27493;51.730;5.294;2023-03-01T13:58:58;6.57;;;5.17;;
41817;SDS011;27493;51.730;5.294;2023-03-01T14:03:52;9.47;;;5.00;;
41817;SDS011;27493;51.730;5.294;2023-03-01T14:06:36;7.57;;;5.20;;
41817;SDS011;27493;51.730;5.294;2023-03-01T14:09:03;8.53;;;5.53;;
41817;SDS011;27493;51.730;5.294;2023-03-01T14:11:35;6.47;;;5.10;;
41817;SDS011;27493;51.730;5.294;2023-03-01T14:16:45;7.80;;;5.30;;
41817;SDS011;27493;51.730;5.294;2023-03-01T14:19:21;9.63;;;4.93;;
41817;SDS011;27493;51.730;5.294;2023-03-01T14:21:50;8.17;;;5.20;;
41817;SDS011;27493;51.730;5.294;2023-03-01T14:24:23;7.00;;;5.23;;
41817;SDS011;27493;51.730;5.294;2023-03-01T14:26:49;6.97;;;4.77;;
41817;SDS011;27493;51.730;5.294;2023-03-01T14:32:08;6.83;;;5.03;;
41817;SDS011;27493;51.730;5.294;2023-03-01T14:34:33;6.70;;;5.30;;
41817;SDS011;27493;51.730;5.294;2023-03-01T14:37:09;5.73;;;4.70;;
41817;SDS011;27493;51.730;5.294;2023-03-01T14:39:34;7.63;;;5.23;;
41817;SDS011;27493;51.730;5.294;2023-03-01T14:41:59;6.20;;;5.07;;
41817;SDS011;27493;51.730;5.294;2023-03-01T14:44:24;7.43;;;4.80;;
41817;SDS011;27493;51.730;5.294;2023-03-01T14:46:53;6.03;;;5.00;;
41817;SDS011;27493;51.730;5.294;2023-03-01T14:49:20;9.07;;;5.30;;
41817;SDS011;27493;51.730;5.294;2023-03-01T14:51:51;7.37;;;5.10;;
41817;SDS011;27493;51.730;5.294;2023-03-01T14:54:22;7.70;;;4.90;;
41817;SDS011;27493;51.730;5.294;2023-03-01T14:56:48;6.67;;;5.00;;
41817;SDS011;27493;51.730;5.294;2023-03-01T14:59:15;7.33;;;4.80;;
41817;SDS011;27493;51.730;5.294;2023-03-01T15:01:41;6.53;;;4.97;;
41817;SDS011;27493;51.730;5.294;2023-03-01T15:04:06;9.40;;;4.90;;
41817;SDS011;27493;51.730;5.294;2023-03-01T15:06:34;7.27;;;4.97;;
41817;SDS011;27493;51.730;5.294;2023-03-01T15:08:59;6.47;;;4.80;;
41817;SDS011;27493;51.730;5.294;2023-03-01T15:11:31;5.57;;;4.57;;
41817;SDS011;27493;51.730;5.294;2023-03-01T15:13:57;6.10;;;5.00;;
41817;SDS011;27493;51.730;5.294;2023-03-01T15:16:23;7.10;;;5.30;;
41817;SDS011;27493;51.730;5.294;2023-03-01T15:18:54;6.50;;;4.80;;
41817;SDS011;27493;51.730;5.294;2023-03-01T15:21:20;6.00;;;5.10;;
41817;SDS011;27493;51.730;5.294;2023-03-01T15:23:48;6.27;;;4.60;;
41817;SDS011;27493;51.730;5.294;2023-03-01T15:26:24;5.67;;;4.53;;
41817;SDS011;27493;51.730;5.294;2023-03-01T15:28:50;7.27;;;5.23;;
41817;SDS011;27493;51.730;5.294;2023-03-01T15:31:20;6.67;;;5.20;;
41817;SDS011;27493;51.730;5.294;2023-03-01T15:33:46;7.00;;;5.60;;
41817;SDS011;27493;51.730;5.294;2023-03-01T15:38:55;8.77;;;5.20;;
41817;SDS011;27493;51.730;5.294;2023-03-01T15:43:50;6.77;;;5.07;;
41817;SDS011;27493;51.730;5.294;2023-03-01T15:46:29;8.13;;;5.03;;
41817;SDS011;27493;51.730;5.294;2023-03-01T15:48:57;7.93;;;5.20;;
41817;SDS011;27493;51.730;5.294;2023-03-01T15:51:32;6.67;;;5.07;;
41817;SDS011;27493;51.730;5.294;2023-03-01T15:53:59;7.73;;;5.30;;
41817;SDS011;27493;51.730;5.294;2023-03-01T15:56:25;7.57;;;5.77;;
41817;SDS011;27493;51.730;5.294;2023-03-01T15:58:50;7.33;;;5.30;;
41817;SDS011;27493;51.730;5.294;2023-03-01T16:01:16;7.40;;;5.40;;
41817;SDS011;27493;51.730;5.294;2023-03-01T16:03:42;7.47;;;5.73;;
41817;SDS011;27493;51.730;5.294;2023-03-01T16:06:08;8.40;;;5.80;;
41817;SDS011;27493;51.730;5.294;2023-03-01T16:08:33;6.97;;;5.13;;
41817;SDS011;27493;51.730;5.294;2023-03-01T16:10:58;7.73;;;5.03;;
41817;SDS011;27493;51.730;5.294;2023-03-01T16:13:24;6.53;;;4.90;;
41817;SDS011;27493;51.730;5.294;2023-03-01T16:15:50;8.53;;;5.23;;
41817;SDS011;27493;51.730;5.294;2023-03-01T16:18:15;7.07;;;5.33;;
41817;SDS011;27493;51.730;5.294;2023-03-01T16:20:40;8.97;;;4.90;;
41817;SDS011;27493;51.730;5.294;2023-03-01T16:23:07;6.90;;;5.47;;
41817;SDS011;27493;51.730;5.294;2023-03-01T16:25:33;7.60;;;5.17;;
41817;SDS011;27493;51.730;5.294;2023-03-01T16:27:58;8.03;;;5.70;;